< < Back
Terminal Aerodrome Forecast


Current Version              Previous Versions:   1  2  3  4  5  6  7  8  9  

Terminal Aerodrome Forecast

408
FTUS42 KILM 241120
TAFFLO
TAF
KFLO 241120Z 2412/2512 24006KT P6SM FEW060
     FM250000 VRB03KT P6SM SKC=



Latest METAR

777
SAUS70 KWBC 241300 RRC
MTRFLO
METAR KFLO 241253Z 27004KT 10SM CLR 19/13 A3016 RMK AO2 SLP211
T01890128


USA.gov is the U.S. government's official web portal to all federal, state and local government web resources and services.